Time;durP1;ratioP1;P1;durP2;ratioP2;P2;SDS_P1;SDS_P2;PMS_P1;PMS_P2;Temp;Humidity;BMP_temperature;BMP_pressure;BME280_temperature;BME280_humidity;BME280_pressure;Samples;Min_cycle;Max_cycle;Signal;HPM_P1;HPM_P2
2022/06/06 00:00:43;;;;;;;6.68;6.18;;;;;;;-145.23;100.00;58621.06;5008177;28;20290;-52
2022/06/06 00:03:10;;;;;;;6.60;6.00;;;;;;;-145.23;100.00;58621.06;5019127;28;20243;-52
2022/06/06 00:05:37;;;;;;;6.35;5.85;;;;;;;-145.23;100.00;58621.06;5020433;28;20232;-52
2022/06/06 00:08:04;;;;;;;6.00;5.40;;;;;;;-145.23;100.00;58621.06;5024471;28;20768;-56
2022/06/06 00:10:31;;;;;;;6.60;5.97;;;;;;;-145.23;100.00;58621.06;5022435;28;20239;-52
2022/06/06 00:12:57;;;;;;;6.47;5.97;;;;;;;-145.23;100.00;58621.06;5024089;28;20236;-53
2022/06/06 00:15:25;;;;;;;7.05;6.45;;;;;;;-145.23;100.00;58621.06;5023649;28;20239;-52
2022/06/06 00:17:52;;;;;;;6.30;5.80;;;;;;;-145.23;100.00;58621.06;5022894;28;20236;-52
2022/06/06 00:20:18;;;;;;;6.65;6.15;;;;;;;-145.23;100.00;58621.06;5025252;28;20238;-52
2022/06/06 00:22:45;;;;;;;6.88;6.28;;;;;;;-145.23;100.00;58621.06;5027316;28;20237;-52
2022/06/06 00:25:11;;;;;;;6.20;5.80;;;;;;;-145.23;100.00;58621.06;5024035;28;20236;-52
2022/06/06 00:27:38;;;;;;;7.43;6.72;;;;;;;-145.23;100.00;58621.06;5024353;28;20229;-52
2022/06/06 00:30:05;;;;;;;7.05;6.45;;;;;;;-145.23;100.00;58621.06;5024589;28;20237;-52
2022/06/06 00:35:20;;;;;;;6.60;6.10;;;;;;;-145.23;100.00;58621.06;5022473;28;20244;-52
2022/06/06 00:37:47;;;;;;;6.70;6.03;;;;;;;-145.23;100.00;58621.06;5024271;28;20228;-53
2022/06/06 00:40:14;;;;;;;6.38;5.97;;;;;;;-145.23;100.00;58621.06;5018771;28;20243;-52
2022/06/06 00:42:42;;;;;;;6.13;5.70;;;;;;;-145.23;100.00;58621.06;5017034;28;20327;-53
2022/06/06 00:45:22;;;;;;;6.80;6.20;;;;;;;-145.23;100.00;58621.06;5018981;28;20324;-52
2022/06/06 00:47:54;;;;;;;6.30;5.88;;;;;;;-145.23;100.00;58621.06;5018491;28;20240;-51
2022/06/06 00:50:24;;;;;;;6.45;6.05;;;;;;;-145.23;100.00;58621.06;5020774;28;20236;-52
2022/06/06 00:52:52;;;;;;;7.22;6.50;;;;;;;-145.23;100.00;58621.06;5022769;28;20311;-52
2022/06/06 00:55:22;;;;;;;7.47;6.78;;;;;;;-145.23;100.00;58621.06;5022092;28;20640;-52
2022/06/06 00:57:52;;;;;;;6.75;6.15;;;;;;;-145.23;100.00;58621.06;5025605;28;20235;-51
2022/06/06 01:00:21;;;;;;;6.60;6.10;;;;;;;-145.23;100.00;58621.06;5021904;28;20232;-52
2022/06/06 01:02:52;;;;;;;6.97;6.47;;;;;;;-145.23;100.00;58621.06;5023624;28;20240;-52
2022/06/06 01:05:19;;;;;;;7.00;6.50;;;;;;;-145.23;100.00;58621.06;5021341;28;20766;-53
2022/06/06 01:07:45;;;;;;;7.10;6.50;;;;;;;-145.23;100.00;58621.06;5021988;28;20240;-52
2022/06/06 01:10:14;;;;;;;7.60;6.90;;;;;;;-145.23;100.00;58621.06;5024353;28;20734;-52
2022/06/06 01:12:41;;;;;;;7.07;6.57;;;;;;;-145.23;100.00;58621.06;5022553;28;20229;-52
2022/06/06 01:15:10;;;;;;;8.13;7.53;;;;;;;-145.23;100.00;58621.06;5024031;28;20232;-53
2022/06/06 01:17:42;;;;;;;8.20;7.45;;;;;;;-145.23;100.00;58621.06;5023530;28;20311;-52
2022/06/06 01:20:19;;;;;;;8.02;7.32;;;;;;;-145.23;100.00;58621.06;5021657;28;20335;-53
2022/06/06 01:23:16;;;;;;;7.53;6.90;;;;;;;-145.23;100.00;58621.06;5023796;28;20228;-53
2022/06/06 01:25:54;;;;;;;8.55;7.93;;;;;;;-145.23;100.00;58621.06;5025682;28;20320;-52
2022/06/06 01:28:49;;;;;;;7.82;7.22;;;;;;;-145.23;100.00;58621.06;5012016;28;20240;-52
2022/06/06 01:31:18;;;;;;;8.90;7.45;;;;;;;-145.23;100.00;58621.06;5025023;28;20247;-53
2022/06/06 01:33:55;;;;;;;7.82;7.22;;;;;;;-145.23;100.00;58621.06;5017591;28;20319;-51
2022/06/06 01:36:22;;;;;;;7.22;6.65;;;;;;;-145.23;100.00;58621.06;5036156;28;20635;-52
2022/06/06 01:38:49;;;;;;;7.32;6.82;;;;;;;-145.23;100.00;58621.06;5019194;28;20246;-54
2022/06/06 01:41:21;;;;;;;8.35;7.75;;;;;;;-145.23;100.00;58621.06;5024517;28;20722;-52
2022/06/06 01:43:52;;;;;;;8.52;7.72;;;;;;;-145.23;100.00;58621.06;5025445;28;20237;-52
2022/06/06 01:46:22;;;;;;;9.25;8.35;;;;;;;-145.23;100.00;58621.06;5023080;28;20242;-52
2022/06/06 01:48:49;;;;;;;7.95;7.35;;;;;;;-145.23;100.00;58621.06;5020038;28;20567;-52
2022/06/06 01:51:20;;;;;;;7.72;7.07;;;;;;;-145.23;100.00;58621.06;5022842;28;20650;-53
2022/06/06 01:53:47;;;;;;;8.90;8.20;;;;;;;-145.23;100.00;58621.06;5020870;28;20232;-55
2022/06/06 01:56:15;;;;;;;9.25;8.55;;;;;;;-145.23;100.00;58621.06;5024691;28;20228;-55
2022/06/06 01:58:42;;;;;;;9.50;8.70;;;;;;;-145.23;100.00;58621.06;5025241;28;20224;-54
2022/06/06 02:01:10;;;;;;;9.32;8.63;;;;;;;-145.23;100.00;58621.06;5026762;28;20695;-55
2022/06/06 02:03:37;;;;;;;9.55;8.80;;;;;;;-145.23;100.00;58621.06;5020550;28;20306;-54
2022/06/06 02:06:05;;;;;;;10.63;9.80;;;;;;;-145.23;100.00;58621.06;5026925;28;20236;-55
2022/06/06 02:08:32;;;;;;;11.52;10.63;;;;;;;-145.23;100.00;58621.06;5021069;28;20225;-54
2022/06/06 02:10:59;;;;;;;11.15;10.25;;;;;;;-145.23;100.00;58621.06;5025506;28;20314;-55
2022/06/06 02:13:26;;;;;;;11.38;10.38;;;;;;;-145.23;100.00;58621.06;5025638;28;21637;-53
2022/06/06 02:15:53;;;;;;;11.70;10.82;;;;;;;-145.23;100.00;58621.06;5025089;28;20274;-54
2022/06/06 02:18:22;;;;;;;11.73;10.73;;;;;;;-145.23;100.00;58621.06;5022909;28;20241;-53
2022/06/06 02:20:49;;;;;;;11.05;10.02;;;;;;;-145.23;100.00;58621.06;5016946;28;20233;-53
2022/06/06 02:23:16;;;;;;;12.07;10.98;;;;;;;-145.23;100.00;58621.06;5025790;28;20236;-52
2022/06/06 02:25:43;;;;;;;12.05;10.93;;;;;;;-145.23;100.00;58621.06;5026381;28;20925;-53
2022/06/06 02:28:09;;;;;;;13.13;11.10;;;;;;;-145.23;100.00;58621.06;5024749;28;20857;-54
2022/06/06 02:30:37;;;;;;;12.88;11.82;;;;;;;-145.23;100.00;58621.06;5025879;28;20237;-53
2022/06/06 02:33:04;;;;;;;11.73;10.88;;;;;;;-145.23;100.00;58621.06;5025000;28;20263;-53
2022/06/06 02:35:34;;;;;;;12.38;11.38;;;;;;;-145.23;100.00;58621.06;5026794;28;20233;-53
2022/06/06 02:38:01;;;;;;;13.07;12.07;;;;;;;-145.23;100.00;58621.06;5022289;28;20233;-53
2022/06/06 02:40:30;;;;;;;12.38;11.38;;;;;;;-145.23;100.00;58621.06;5023957;28;20239;-52
2022/06/06 02:42:57;;;;;;;12.18;11.13;;;;;;;-145.23;100.00;58621.06;5025116;28;20319;-52
2022/06/06 02:45:24;;;;;;;11.98;10.90;;;;;;;-145.23;100.00;58621.06;5023705;28;20243;-54
2022/06/06 02:47:52;;;;;;;14.10;12.90;;;;;;;-145.23;100.00;58621.06;5024074;28;20248;-58
2022/06/06 02:50:21;;;;;;;13.10;12.13;;;;;;;-145.23;100.00;58621.06;5025460;28;20248;-53
2022/06/06 02:52:52;;;;;;;10.98;10.15;;;;;;;-145.23;100.00;58621.06;5023493;28;20232;-53
2022/06/06 02:55:19;;;;;;;12.73;11.68;;;;;;;-145.23;100.00;58621.06;5021056;28;20237;-53
2022/06/06 02:57:48;;;;;;;11.98;11.07;;;;;;;-145.23;100.00;58621.06;5024070;28;20303;-52
2022/06/06 03:00:20;;;;;;;12.18;11.18;;;;;;;-145.23;100.00;58621.06;5021292;28;20236;-53
2022/06/06 03:02:46;;;;;;;12.10;11.25;;;;;;;-145.23;100.00;58621.06;5022398;28;20786;-53
2022/06/06 03:05:13;;;;;;;13.20;12.02;;;;;;;-145.23;100.00;58621.06;5024481;28;20240;-52
2022/06/06 03:07:48;;;;;;;12.02;11.13;;;;;;;-145.23;100.00;58621.06;5023724;28;20298;-52
2022/06/06 03:10:21;;;;;;;12.07;10.98;;;;;;;-145.23;100.00;58621.06;5017924;28;20236;-52
2022/06/06 03:13:00;;;;;;;12.52;11.52;;;;;;;-145.23;100.00;58621.06;5021162;28;20237;-52
2022/06/06 03:21:31;;;;;;;13.32;12.05;;;;;;;-145.23;100.00;58621.06;5022316;28;20247;-52
2022/06/06 03:24:09;;;;;;;11.90;11.00;;;;;;;-145.23;100.00;58621.06;5018987;28;20229;-52
2022/06/06 03:26:45;;;;;;;13.85;12.80;;;;;;;-145.23;100.00;58621.06;5021951;28;20239;-55
2022/06/06 03:29:23;;;;;;;13.98;12.82;;;;;;;-145.23;100.00;58621.06;5015315;28;20232;-53
2022/06/06 03:31:54;;;;;;;15.68;14.10;;;;;;;-145.23;100.00;58621.06;5021820;28;20236;-53
2022/06/06 03:34:26;;;;;;;15.10;13.85;;;;;;;-145.23;100.00;58621.06;5022428;28;20302;-53
2022/06/06 03:36:58;;;;;;;15.35;14.15;;;;;;;-145.23;100.00;58621.06;5024052;28;20711;-53
2022/06/06 03:39:29;;;;;;;15.40;14.18;;;;;;;-145.23;100.00;58621.06;5022233;28;20275;-52
2022/06/06 03:42:02;;;;;;;17.02;15.52;;;;;;;-145.23;100.00;58621.06;5022743;28;20710;-53
2022/06/06 03:44:50;;;;;;;17.42;16.02;;;;;;;-145.23;100.00;58621.06;5023485;28;20236;-54
2022/06/06 03:47:22;;;;;;;17.45;16.08;;;;;;;-145.23;100.00;58621.06;5020413;28;20256;-56
2022/06/06 03:49:57;;;;;;;19.00;17.40;;;;;;;-145.23;100.00;58621.06;5021293;28;20233;-56
2022/06/06 03:52:27;;;;;;;20.27;18.55;;;;;;;-145.23;100.00;58621.06;5023825;28;20278;-55
2022/06/06 03:55:02;;;;;;;22.33;20.20;;;;;;;-145.23;100.00;58621.06;5022436;28;20773;-58
2022/06/06 03:57:31;;;;;;;21.88;20.08;;;;;;;-145.23;100.00;58621.06;5024773;28;20228;-57
2022/06/06 04:00:02;;;;;;;22.80;20.80;;;;;;;-145.23;100.00;58621.06;5023477;28;20228;-58
2022/06/06 04:02:33;;;;;;;20.65;18.85;;;;;;;-145.23;100.00;58621.06;5018708;28;20703;-57
2022/06/06 04:05:01;;;;;;;21.33;19.25;;;;;;;-145.23;100.00;58621.06;5023072;28;20252;-59
2022/06/06 04:07:27;;;;;;;23.35;20.95;;;;;;;-145.23;100.00;58621.06;5022956;28;20644;-59
2022/06/06 04:09:54;;;;;;;21.98;19.92;;;;;;;-145.23;100.00;58621.06;5019779;28;20310;-60
2022/06/06 04:12:39;;;;;;;23.20;21.15;;;;;;;-145.23;100.00;58621.06;5023776;28;20239;-59
2022/06/06 04:15:15;;;;;;;21.83;20.02;;;;;;;-145.23;100.00;58621.06;5022169;28;20232;-58
2022/06/06 04:17:48;;;;;;;21.13;19.33;;;;;;;-145.23;100.00;58621.06;5022457;28;20228;-58
2022/06/06 04:20:23;;;;;;;20.90;19.17;;;;;;;-145.23;100.00;58621.06;5023028;28;20232;-58
2022/06/06 04:23:07;;;;;;;19.83;18.00;;;;;;;-145.23;100.00;58621.06;5021934;28;20246;-59
2022/06/06 04:25:41;;;;;;;19.63;17.98;;;;;;;-145.23;100.00;58621.06;5022501;28;20239;-58
2022/06/06 04:28:18;;;;;;;19.27;17.70;;;;;;;-145.23;100.00;58621.06;5016947;28;20225;-59
2022/06/06 04:30:56;;;;;;;18.90;17.30;;;;;;;-145.23;100.00;58621.06;5023359;28;20247;-61
2022/06/06 04:33:26;;;;;;;19.58;17.75;;;;;;;-145.23;100.00;58621.06;5022827;28;20587;-60
2022/06/06 04:35:59;;;;;;;17.17;15.75;;;;;;;-145.23;100.00;58621.06;5019299;28;20228;-60
2022/06/06 04:38:31;;;;;;;19.77;18.13;;;;;;;-145.23;100.00;58621.06;5020549;28;20244;-60
2022/06/06 04:41:06;;;;;;;17.17;15.68;;;;;;;-145.23;100.00;58621.06;5019922;28;20227;-60
2022/06/06 04:43:39;;;;;;;18.38;16.77;;;;;;;-145.23;100.00;58621.06;5024469;28;20236;-61
2022/06/06 04:46:11;;;;;;;18.40;16.88;;;;;;;-145.23;100.00;58621.06;5023679;28;20637;-59
2022/06/06 04:48:37;;;;;;;19.58;17.88;;;;;;;-145.23;100.00;58621.06;5022660;28;20564;-60
2022/06/06 04:51:05;;;;;;;18.02;16.42;;;;;;;-145.23;100.00;58621.06;5020704;28;20233;-60
2022/06/06 04:53:33;;;;;;;17.38;15.68;;;;;;;-145.23;100.00;58621.06;5026734;28;20233;-61
2022/06/06 04:56:00;;;;;;;20.40;18.60;;;;;;;-145.23;100.00;58621.06;5027282;28;20224;-60
2022/06/06 04:58:29;;;;;;;19.75;18.13;;;;;;;-145.23;100.00;58621.06;5025978;28;20229;-61
2022/06/06 05:00:57;;;;;;;19.83;18.13;;;;;;;-145.23;100.00;58621.06;5026799;28;20251;-60
2022/06/06 05:03:24;;;;;;;18.40;16.80;;;;;;;-145.23;100.00;58621.06;5027726;28;20237;-61
2022/06/06 05:06:00;;;;;;;20.13;18.30;;;;;;;-145.23;100.00;58621.06;5022755;28;20240;-60
2022/06/06 05:08:41;;;;;;;17.60;16.02;;;;;;;-145.23;100.00;58621.06;5023687;28;20240;-61
2022/06/06 05:11:17;;;;;;;19.27;17.67;;;;;;;-145.23;100.00;58621.06;5025079;28;20232;-60
2022/06/06 05:14:00;;;;;;;18.05;16.45;;;;;;;-145.23;100.00;58621.06;5028121;28;20240;-61
2022/06/06 05:16:51;;;;;;;15.48;14.35;;;;;;;-145.23;100.00;58621.06;5026251;28;20246;-60
2022/06/06 05:19:35;;;;;;;14.48;13.30;;;;;;;-145.23;100.00;58621.06;5023111;28;20695;-59
2022/06/06 05:22:21;;;;;;;14.68;13.48;;;;;;;-145.23;100.00;58621.06;5027043;28;20232;-58
2022/06/06 05:24:58;;;;;;;14.55;13.35;;;;;;;-145.23;100.00;58621.06;5022187;28;20640;-59
2022/06/06 05:27:46;;;;;;;15.18;13.77;;;;;;;-145.23;100.00;58621.06;5026392;28;20254;-59
2022/06/06 05:30:18;;;;;;;14.18;12.88;;;;;;;-145.23;100.00;58621.06;5013469;28;20687;-58
2022/06/06 05:33:04;;;;;;;13.25;12.02;;;;;;;-145.23;100.00;58621.06;5025604;28;20252;-57
2022/06/06 05:35:58;;;;;;;12.38;11.23;;;;;;;-145.23;100.00;58621.06;5026394;28;20307;-59
2022/06/06 05:38:45;;;;;;;13.88;12.77;;;;;;;-145.23;100.00;58621.06;5026008;28;20734;-57
2022/06/06 05:41:19;;;;;;;14.30;13.00;;;;;;;-145.23;100.00;58621.06;5017609;28;20312;-57
2022/06/06 05:43:51;;;;;;;12.88;11.77;;;;;;;-145.23;100.00;58621.06;5025964;28;20242;-58
2022/06/06 05:46:29;;;;;;;12.93;11.75;;;;;;;-145.23;100.00;58621.06;5022508;28;20228;-56
2022/06/06 05:49:09;;;;;;;14.32;12.90;;;;;;;-145.23;100.00;58621.06;5023359;28;20231;-57
2022/06/06 05:51:45;;;;;;;14.00;12.90;;;;;;;-145.23;100.00;58621.06;5025088;28;20239;-56
2022/06/06 05:54:25;;;;;;;13.45;12.38;;;;;;;-145.23;100.00;58621.06;5023443;28;20220;-56
2022/06/06 05:57:17;;;;;;;13.60;12.52;;;;;;;-145.23;100.00;58621.06;5017370;28;20243;-56
2022/06/06 06:00:05;;;;;;;13.45;12.35;;;;;;;-145.23;100.00;58621.06;5020928;28;20216;-55
2022/06/06 06:02:44;;;;;;;13.80;12.70;;;;;;;-145.23;100.00;58621.06;5020896;28;20232;-56
2022/06/06 06:05:17;;;;;;;12.98;11.98;;;;;;;-145.23;100.00;58621.06;5020991;28;20232;-56
2022/06/06 06:07:53;;;;;;;12.82;11.85;;;;;;;-145.23;100.00;58621.06;5027016;28;20243;-55
2022/06/06 06:10:24;;;;;;;12.95;11.68;;;;;;;-145.23;100.00;58621.06;5024671;28;20228;-56
2022/06/06 06:13:03;;;;;;;12.18;11.18;;;;;;;-145.23;100.00;58621.06;5024621;28;20239;-55
2022/06/06 06:15:34;;;;;;;12.35;11.25;;;;;;;-145.23;100.00;58621.06;5019803;28;20239;-55
2022/06/06 06:18:01;;;;;;;10.10;9.38;;;;;;;-145.23;100.00;58621.06;5025432;28;20764;-55
2022/06/06 06:20:33;;;;;;;11.00;10.10;;;;;;;-145.23;100.00;58621.06;5025385;28;20244;-54
2022/06/06 06:23:03;;;;;;;10.38;9.57;;;;;;;-145.23;100.00;58621.06;5026433;28;20270;-54
2022/06/06 06:25:33;;;;;;;11.20;10.30;;;;;;;-145.23;100.00;58621.06;5019321;28;20287;-54
2022/06/06 06:28:05;;;;;;;11.65;10.75;;;;;;;-145.23;100.00;58621.06;5025414;28;20325;-54
2022/06/06 06:30:38;;;;;;;11.77;10.88;;;;;;;-145.23;100.00;58621.06;5023016;28;20252;-53
2022/06/06 06:33:17;;;;;;;9.63;8.93;;;;;;;-145.23;100.00;58621.06;5020847;28;20240;-53
2022/06/06 06:35:52;;;;;;;11.32;10.43;;;;;;;-145.23;100.00;58621.06;5025425;28;20286;-53
2022/06/06 06:38:29;;;;;;;11.18;10.23;;;;;;;-145.23;100.00;58621.06;5026588;28;20311;-54
2022/06/06 06:41:05;;;;;;;10.10;9.25;;;;;;;-145.23;100.00;58621.06;5018786;28;20244;-55
2022/06/06 06:43:42;;;;;;;8.80;8.00;;;;;;;-145.23;100.00;58621.06;5024870;28;20260;-54
2022/06/06 06:46:21;;;;;;;7.68;7.07;;;;;;;-145.23;100.00;58621.06;5021519;28;20232;-56
2022/06/06 06:48:51;;;;;;;7.38;6.78;;;;;;;-145.23;100.00;58621.06;5022839;28;20656;-53
2022/06/06 06:51:23;;;;;;;8.75;8.10;;;;;;;-145.23;100.00;58621.06;5024956;28;20255;-54
2022/06/06 06:54:22;;;;;;;8.93;8.25;;;;;;;-145.23;100.00;58621.06;5025144;28;20241;-56
2022/06/06 06:57:04;;;;;;;8.90;8.25;;;;;;;-145.23;100.00;58621.06;5023691;28;20256;-53
2022/06/06 06:59:37;;;;;;;9.52;8.68;;;;;;;-145.23;100.00;58621.06;5025588;28;20236;-53
2022/06/06 07:11:02;;;;;;;9.30;8.50;;;;;;;-145.23;100.00;58621.06;5022840;28;20609;-53
2022/06/06 07:13:48;;;;;;;8.85;8.05;;;;;;;-145.23;100.00;58621.06;5019539;28;20267;-52
2022/06/06 07:16:20;;;;;;;8.35;7.65;;;;;;;-145.23;100.00;58621.06;5018939;28;20236;-53
2022/06/06 07:18:51;;;;;;;7.78;7.18;;;;;;;-145.23;100.00;58621.06;5020005;28;20236;-53
2022/06/06 07:21:18;;;;;;;7.68;6.88;;;;;;;-145.23;100.00;58621.06;5030519;28;20328;-54
2022/06/06 07:23:48;;;;;;;7.85;6.93;;;;;;;-145.23;100.00;58621.06;5023136;28;20710;-54
2022/06/06 07:26:15;;;;;;;7.35;6.75;;;;;;;-145.23;100.00;58621.06;5023386;28;20323;-54
2022/06/06 07:28:41;;;;;;;6.57;6.07;;;;;;;-145.23;100.00;58621.06;5023862;28;20653;-53
2022/06/06 07:31:17;;;;;;;6.80;6.23;;;;;;;-145.23;100.00;58621.06;5023022;28;20310;-53
2022/06/06 07:33:57;;;;;;;7.13;6.53;;;;;;;-145.23;100.00;58621.06;5025086;28;20228;-53
2022/06/06 07:36:30;;;;;;;6.95;6.35;;;;;;;-145.23;100.00;58621.06;5022948;28;20228;-53
2022/06/06 07:39:10;;;;;;;7.13;6.43;;;;;;;-145.23;100.00;58621.06;5021402;28;20237;-53
2022/06/06 07:41:49;;;;;;;7.72;6.88;;;;;;;-145.23;100.00;58621.06;5014573;28;20223;-53
2022/06/06 07:44:37;;;;;;;6.75;6.20;;;;;;;-145.23;100.00;58621.06;5023653;28;20236;-53
2022/06/06 07:47:06;;;;;;;5.68;5.28;;;;;;;-145.23;100.00;58621.06;5020742;28;20228;-54
2022/06/06 07:49:41;;;;;;;6.05;5.55;;;;;;;-145.23;100.00;58621.06;5025189;28;20244;-53
2022/06/06 07:52:17;;;;;;;6.20;5.70;;;;;;;-145.23;100.00;58621.06;5020843;28;20232;-54
2022/06/06 07:54:51;;;;;;;5.82;5.28;;;;;;;-145.23;100.00;58621.06;5022741;28;20251;-54
2022/06/06 07:57:24;;;;;;;6.40;5.80;;;;;;;-145.23;100.00;58621.06;5020038;28;20241;-54
2022/06/06 07:59:56;;;;;;;6.05;5.55;;;;;;;-145.23;100.00;58621.06;5023987;28;20235;-53
2022/06/06 08:02:39;;;;;;;5.70;5.18;;;;;;;-145.23;100.00;58621.06;5021462;28;20240;-53
2022/06/06 08:05:18;;;;;;;5.95;5.43;;;;;;;-145.23;100.00;58621.06;5020798;28;20741;-53
2022/06/06 08:07:52;;;;;;;5.30;4.90;;;;;;;-145.23;100.00;58621.06;5023391;28;20712;-52
2022/06/06 08:10:27;;;;;;;4.75;4.45;;;;;;;-145.23;100.00;58621.06;5021749;28;20316;-53
2022/06/06 08:13:17;;;;;;;4.68;4.38;;;;;;;-145.23;100.00;58621.06;5024950;28;20321;-52
2022/06/06 08:16:01;;;;;;;5.15;4.60;;;;;;;-145.23;100.00;58621.06;5024017;28;20229;-54
2022/06/06 08:18:48;;;;;;;6.47;5.07;;;;;;;-145.23;100.00;58621.06;5014527;28;20233;-53
2022/06/06 08:21:20;;;;;;;5.10;4.70;;;;;;;-145.23;100.00;58621.06;5020954;28;20260;-53
2022/06/06 08:23:46;;;;;;;5.03;4.60;;;;;;;-145.23;100.00;58621.06;5024538;28;20245;-53
2022/06/06 08:26:16;;;;;;;5.20;4.75;;;;;;;-145.23;100.00;58621.06;5023189;28;20728;-54
2022/06/06 08:28:44;;;;;;;4.80;4.40;;;;;;;-145.23;100.00;58621.06;5026665;28;20749;-54
2022/06/06 08:31:10;;;;;;;4.95;4.45;;;;;;;-145.23;100.00;58621.06;5028420;28;20599;-54
2022/06/06 08:33:37;;;;;;;14.93;4.90;;;;;;;-145.23;100.00;58621.06;5024617;28;20240;-53
2022/06/06 08:36:19;;;;;;;4.75;4.28;;;;;;;-145.23;100.00;58621.06;5029027;28;20231;-53
2022/06/06 08:38:55;;;;;;;4.85;4.35;;;;;;;-145.23;100.00;58621.06;5025451;28;20599;-53
2022/06/06 08:41:44;;;;;;;4.72;4.32;;;;;;;-145.23;100.00;58621.06;5027172;28;20232;-53
2022/06/06 08:44:26;;;;;;;4.03;3.72;;;;;;;-145.23;100.00;58621.06;5020594;28;20243;-54
2022/06/06 08:47:02;;;;;;;6.15;4.20;;;;;;;-145.23;100.00;58621.06;5024408;28;20706;-53
2022/06/06 08:52:52;;;;;;;5.45;4.82;;;;;;;-145.23;100.00;58621.06;5025455;28;20248;-54
2022/06/06 08:55:34;;;;;;;3.97;3.67;;;;;;;-145.23;100.00;58621.06;5025385;28;20631;-52
2022/06/06 08:58:21;;;;;;;5.18;4.78;;;;;;;-145.23;100.00;58621.06;5021333;28;20695;-53
2022/06/06 09:00:54;;;;;;;4.82;4.38;;;;;;;-145.23;100.00;58621.06;5027861;28;20322;-54
2022/06/06 09:04:01;;;;;;;4.75;4.35;;;;;;;-145.23;100.00;58621.06;5025326;28;20266;-52
2022/06/06 09:07:14;;;;;;;4.65;4.25;;;;;;;-145.23;100.00;58621.06;5018150;28;20719;-53
2022/06/06 09:10:13;;;;;;;4.80;4.40;;;;;;;-145.23;100.00;58621.06;5025740;28;20232;-52
2022/06/06 09:13:09;;;;;;;4.30;4.00;;;;;;;-145.23;100.00;58621.06;5024652;28;20240;-52
2022/06/06 09:15:59;;;;;;;4.00;3.70;;;;;;;-145.23;100.00;58621.06;5026784;28;20243;-54
2022/06/06 09:19:07;;;;;;;3.90;3.60;;;;;;;-145.23;100.00;58621.06;5026273;28;20319;-53
2022/06/06 09:22:09;;;;;;;4.05;3.75;;;;;;;-145.23;100.00;58621.06;5022618;28;20327;-52
2022/06/06 09:25:18;;;;;;;4.18;3.90;;;;;;;-145.23;100.00;58621.06;5022472;28;20227;-53
2022/06/06 09:28:10;;;;;;;4.50;4.20;;;;;;;-145.23;100.00;58621.06;5025080;28;20232;-53
2022/06/06 09:31:08;;;;;;;4.40;4.05;;;;;;;-145.23;100.00;58621.06;5024811;28;20717;-53
2022/06/06 09:34:03;;;;;;;3.92;3.70;;;;;;;-145.23;100.00;58621.06;5022340;28;20298;-53
2022/06/06 09:36:46;;;;;;;4.20;3.85;;;;;;;-145.23;100.00;58621.06;5021133;28;20233;-53
2022/06/06 09:39:32;;;;;;;4.15;3.85;;;;;;;-145.23;100.00;58621.06;5022949;28;20319;-52
2022/06/06 09:42:02;;;;;;;4.40;4.00;;;;;;;-145.23;100.00;58621.06;5024013;28;20247;-52
2022/06/06 09:44:48;;;;;;;4.20;3.80;;;;;;;-145.23;100.00;58621.06;5020967;28;20286;-52
2022/06/06 09:47:42;;;;;;;3.72;3.42;;;;;;;-145.23;100.00;58621.06;5022518;28;20236;-52
2022/06/06 09:50:42;;;;;;;4.18;3.75;;;;;;;-145.23;100.00;58621.06;5024022;28;20252;-53
2022/06/06 09:53:33;;;;;;;3.88;3.53;;;;;;;-145.23;100.00;58621.06;4982285;28;20242;-53
2022/06/06 09:59:32;;;;;;;4.50;4.10;;;;;;;-145.23;100.00;58621.06;5021026;28;20293;-52
2022/06/06 10:02:34;;;;;;;4.50;4.00;;;;;;;-145.23;100.00;58621.06;5023806;28;20248;-52
2022/06/06 10:05:29;;;;;;;3.50;3.20;;;;;;;-145.23;100.00;58621.06;5022583;28;20724;-53
2022/06/06 10:08:33;;;;;;;4.97;4.05;;;;;;;-145.23;100.00;58621.06;5011758;28;20224;-52
2022/06/06 10:11:33;;;;;;;4.88;3.88;;;;;;;-145.23;100.00;58621.06;5023548;28;20331;-55
2022/06/06 10:14:08;;;;;;;8.43;4.32;;;;;;;-145.23;100.00;58621.06;5021150;28;20599;-52
2022/06/06 10:16:52;;;;;;;4.15;3.85;;;;;;;-145.23;100.00;58621.06;5026431;28;20343;-53
2022/06/06 10:19:30;;;;;;;4.32;3.92;;;;;;;-145.23;100.00;58621.06;5020990;28;20236;-53
2022/06/06 10:22:11;;;;;;;4.22;3.58;;;;;;;-145.23;100.00;58621.06;5022846;28;20236;-53
2022/06/06 10:24:59;;;;;;;6.60;4.10;;;;;;;-145.23;100.00;58621.06;5019310;28;20228;-53
2022/06/06 10:27:34;;;;;;;4.47;4.07;;;;;;;-145.23;100.00;58621.06;5022763;28;20283;-53
2022/06/06 10:30:13;;;;;;;4.40;4.00;;;;;;;-145.23;100.00;58621.06;5022350;28;20227;-53
2022/06/06 10:33:13;;;;;;;3.78;3.47;;;;;;;-145.23;100.00;58621.06;5020880;28;20248;-53
2022/06/06 10:36:11;;;;;;;4.07;3.78;;;;;;;-145.23;100.00;58621.06;5022741;28;20243;-55
2022/06/06 10:39:14;;;;;;;4.75;3.40;;;;;;;-145.23;100.00;58621.06;5018452;28;20270;-52
2022/06/06 10:42:08;;;;;;;4.47;3.83;;;;;;;-145.23;100.00;58621.06;5021211;28;20571;-53
2022/06/06 10:44:51;;;;;;;5.75;3.90;;;;;;;-145.23;100.00;58621.06;5023580;28;20286;-53
2022/06/06 10:47:26;;;;;;;4.13;3.83;;;;;;;-145.23;100.00;58621.06;5020717;28;20232;-53
2022/06/06 10:50:00;;;;;;;3.70;3.40;;;;;;;-145.23;100.00;58621.06;5022078;28;20319;-52
2022/06/06 10:53:01;;;;;;;4.50;3.75;;;;;;;-145.23;100.00;58621.06;5023910;28;20663;-53
2022/06/06 10:55:59;;;;;;;3.58;3.15;;;;;;;-145.23;100.00;58621.06;5001391;28;20235;-58
2022/06/06 10:58:50;;;;;;;4.00;3.70;;;;;;;-145.23;100.00;58621.06;5016299;28;20227;-53
2022/06/06 11:01:50;;;;;;;3.60;3.35;;;;;;;-145.23;100.00;58621.06;5019506;28;20233;-52
2022/06/06 11:04:59;;;;;;;3.58;3.30;;;;;;;-145.23;100.00;58621.06;5023366;28;20244;-53
2022/06/06 11:08:07;;;;;;;4.32;3.50;;;;;;;-145.23;100.00;58621.06;5021306;28;20236;-53
2022/06/06 11:11:06;;;;;;;3.15;2.80;;;;;;;-145.23;100.00;58621.06;4998950;28;20615;-52
2022/06/06 11:13:47;;;;;;;3.45;3.15;;;;;;;-145.23;100.00;58621.06;5015159;28;20233;-52
2022/06/06 11:16:47;;;;;;;3.88;3.50;;;;;;;-145.23;100.00;58621.06;5018592;28;20236;-58
2022/06/06 11:19:42;;;;;;;3.35;3.13;;;;;;;-145.23;100.00;58621.06;5018764;28;20240;-54
2022/06/06 11:22:29;;;;;;;3.80;3.50;;;;;;;-145.23;100.00;58621.06;5024898;28;20237;-52
2022/06/06 11:25:07;;;;;;;3.90;3.60;;;;;;;-145.23;100.00;58621.06;5023697;28;20232;-53
2022/06/06 11:28:25;;;;;;;3.55;3.35;;;;;;;-145.23;100.00;58621.06;5025009;28;20224;-53
2022/06/06 11:31:32;;;;;;;3.20;3.00;;;;;;;-145.23;100.00;58621.06;5022285;28;20236;-53
2022/06/06 11:34:35;;;;;;;3.55;3.30;;;;;;;-145.23;100.00;58621.06;5022101;28;20324;-53
2022/06/06 11:37:44;;;;;;;3.60;3.30;;;;;;;-145.23;100.00;58621.06;5023675;28;20240;-53
2022/06/06 11:40:22;;;;;;;3.35;3.13;;;;;;;-145.23;100.00;58621.06;5001604;28;20625;-54
2022/06/06 11:43:06;;;;;;;3.20;3.00;;;;;;;-145.23;100.00;58621.06;5021120;28;20714;-54
2022/06/06 11:46:09;;;;;;;3.53;3.20;;;;;;;-145.23;100.00;58621.06;5021230;28;20238;-53
2022/06/06 11:49:01;;;;;;;4.00;2.80;;;;;;;-145.23;100.00;58621.06;5018372;28;20232;-52
2022/06/06 11:51:43;;;;;;;3.38;3.10;;;;;;;-145.23;100.00;58621.06;5020392;28;20221;-52
2022/06/06 11:54:49;;;;;;;3.05;2.75;;;;;;;-145.23;100.00;58621.06;5016891;28;20695;-52
2022/06/06 11:57:48;;;;;;;2.63;2.45;;;;;;;-145.23;100.00;58621.06;5019781;28;20232;-53
2022/06/06 12:00:24;;;;;;;2.83;2.63;;;;;;;-145.23;100.00;58621.06;5017399;28;20237;-53
2022/06/06 12:03:23;;;;;;;3.13;2.92;;;;;;;-145.23;100.00;58621.06;5017948;28;20391;-53
2022/06/06 12:06:29;;;;;;;2.78;2.58;;;;;;;-145.23;100.00;58621.06;5020235;28;20237;-53
2022/06/06 12:09:08;;;;;;;3.05;2.75;;;;;;;-145.23;100.00;58621.06;4963670;28;20257;-53
2022/06/06 12:12:19;;;;;;;3.70;3.00;;;;;;;-145.23;100.00;58621.06;5023214;28;20645;-54
2022/06/06 12:15:15;;;;;;;2.85;2.65;;;;;;;-145.23;100.00;58621.06;5024758;28;20236;-53
2022/06/06 12:17:47;;;;;;;2.70;2.50;;;;;;;-145.23;100.00;58621.06;5021967;28;20239;-53